createdAt,value
2018-05-08T00:00:08.505Z,101590.43
2018-05-08T00:01:12.827Z,101592.94
2018-05-08T00:02:17.538Z,101590.70
2018-05-08T00:03:22.597Z,101591.86
2018-05-08T00:04:27.016Z,101587.45
2018-05-08T00:05:31.174Z,101589.59
2018-05-08T00:06:35.269Z,101587.36
2018-05-08T00:07:39.364Z,101587.42
2018-05-08T00:08:43.444Z,101592.35
2018-05-08T00:09:47.756Z,101587.64
2018-05-08T00:10:52.160Z,101587.00
2018-05-08T00:11:56.242Z,101592.67
2018-05-08T00:13:00.308Z,101582.25
2018-05-08T00:14:04.422Z,101587.17
2018-05-08T00:15:08.832Z,101583.41
2018-05-08T00:16:12.938Z,101583.13
2018-05-08T00:17:17.363Z,101586.11
2018-05-08T00:18:21.464Z,101580.22
2018-05-08T00:19:25.567Z,101580.48
2018-05-08T00:20:30.517Z,101581.54
2018-05-08T00:21:34.664Z,101585.83
2018-05-08T00:22:38.726Z,101581.10
2018-05-08T00:23:42.816Z,101579.85
2018-05-08T00:24:46.935Z,101577.13
2018-05-08T00:25:51.095Z,101579.56
2018-05-08T00:26:55.476Z,101571.39
2018-05-08T00:27:59.570Z,101577.80
2018-05-08T00:29:03.987Z,101575.13
2018-05-08T00:30:08.420Z,101573.77
2018-05-08T00:31:12.490Z,101576.06
2018-05-08T00:32:17.606Z,101574.91
2018-05-08T00:33:21.677Z,101566.76
2018-05-08T00:34:26.081Z,101574.88
2018-05-08T00:35:30.145Z,101566.80
2018-05-08T00:36:34.478Z,101566.33
2018-05-08T00:37:38.648Z,101563.79
2018-05-08T00:38:42.736Z,101565.92
2018-05-08T00:39:46.844Z,101563.76
2018-05-08T00:40:51.284Z,101568.45
2018-05-08T00:41:55.359Z,101555.80
2018-05-08T00:42:59.494Z,101558.68
2018-05-08T00:44:03.606Z,101559.75
2018-05-08T00:45:08.162Z,101564.73
2018-05-08T00:46:12.537Z,101569.08
2018-05-08T00:47:16.621Z,101563.38
2018-05-08T00:48:20.770Z,101563.06
2018-05-08T00:49:24.859Z,101567.31
2018-05-08T00:50:29.015Z,101561.30
2018-05-08T00:51:33.103Z,101563.78
2018-05-08T00:52:37.253Z,101567.45
2018-05-08T00:53:41.309Z,101562.09
2018-05-08T00:54:55.204Z,101560.06
2018-05-08T00:55:59.290Z,101559.55
2018-05-08T00:57:03.678Z,101558.19
2018-05-08T00:58:07.779Z,101559.98
2018-05-08T00:59:11.916Z,101563.34
2018-05-08T01:00:17.545Z,101563.75
2018-05-08T01:01:22.547Z,101565.48
2018-05-08T01:02:26.702Z,101563.37
2018-05-08T01:03:31.593Z,101557.24
2018-05-08T01:04:35.973Z,101559.62
2018-05-08T01:05:40.051Z,101557.95
2018-05-08T01:06:44.200Z,101561.17
2018-05-08T01:07:48.271Z,101563.21
2018-05-08T01:08:52.372Z,101553.95
2018-05-08T01:09:57.850Z,101561.67
2018-05-08T01:11:02.790Z,101553.98
2018-05-08T01:12:06.938Z,101560.83
2018-05-08T01:13:11.055Z,101569.25
2018-05-08T01:14:16.089Z,101565.22
2018-05-08T01:15:20.752Z,101563.70
2018-05-08T01:16:24.906Z,101562.81
2018-05-08T01:17:29.073Z,101571.83
2018-05-08T01:18:33.145Z,101566.73
2018-05-08T01:19:37.305Z,101568.02
2018-05-08T01:20:41.386Z,101566.11
2018-05-08T01:21:45.430Z,101559.19
2018-05-08T01:22:49.867Z,101563.67
2018-05-08T01:23:53.986Z,101567.00
2018-05-08T01:24:58.097Z,101559.70
2018-05-08T01:26:02.437Z,101564.14
2018-05-08T01:27:06.514Z,101554.78
2018-05-08T01:28:10.880Z,101567.59
2018-05-08T01:29:15.489Z,101563.15
2018-05-08T01:30:19.992Z,101558.23
2018-05-08T01:31:24.072Z,101560.89
2018-05-08T01:32:28.180Z,101562.13
2018-05-08T01:33:32.927Z,101557.34
2018-05-08T01:34:36.962Z,101556.95
2018-05-08T01:35:41.419Z,101555.60
2018-05-08T01:36:45.522Z,101554.17
2018-05-08T01:37:49.720Z,101554.02
2018-05-08T01:38:53.902Z,101556.95
2018-05-08T01:39:58.047Z,101548.78
2018-05-08T01:41:02.162Z,101548.36
2018-05-08T01:42:06.650Z,101547.89
2018-05-08T01:43:10.710Z,101551.16
2018-05-08T01:44:14.939Z,101547.31
2018-05-08T01:45:19.806Z,101544.36
2018-05-08T01:46:24.528Z,101546.82
2018-05-08T01:47:28.591Z,101546.88
2018-05-08T01:48:33.030Z,101545.53
2018-05-08T01:49:37.485Z,101549.73
2018-05-08T01:50:41.563Z,101545.45
2018-05-08T01:51:46.035Z,101544.52
2018-05-08T01:52:50.416Z,101543.09
2018-05-08T01:53:54.834Z,101540.73
2018-05-08T01:54:59.230Z,101540.25
2018-05-08T01:56:03.330Z,101537.91
2018-05-08T01:57:07.372Z,101536.45
2018-05-08T01:58:11.511Z,101539.39
2018-05-08T01:59:15.578Z,101538.02
2018-05-08T02:00:19.714Z,101537.30
2018-05-08T02:01:23.928Z,101531.32
2018-05-08T02:02:28.047Z,101535.55
2018-05-08T02:03:32.102Z,101528.99
2018-05-08T02:04:36.189Z,101533.23
2018-05-08T02:05:40.234Z,101533.67
2018-05-08T02:06:44.668Z,101529.05
2018-05-08T02:07:48.829Z,101526.58
2018-05-08T02:08:52.884Z,101531.20
2018-05-08T02:09:57.031Z,101528.28
2018-05-08T02:11:01.093Z,101530.42
2018-05-08T02:12:05.174Z,101528.41
2018-05-08T02:13:09.241Z,101526.00
2018-05-08T02:14:13.321Z,101526.89
2018-05-08T02:15:17.699Z,101525.89
2018-05-08T02:16:21.802Z,101525.07
2018-05-08T02:17:25.910Z,101523.00
2018-05-08T02:18:30.060Z,101516.62
2018-05-08T02:19:34.509Z,101514.23
2018-05-08T02:20:38.672Z,101518.80
2018-05-08T02:21:42.825Z,101519.96
2018-05-08T02:22:46.891Z,101514.69
2018-05-08T02:23:50.968Z,101512.23
2018-05-08T02:24:55.427Z,101512.67
2018-05-08T02:25:59.877Z,101510.06
2018-05-08T02:27:04.191Z,101511.65
2018-05-08T02:28:08.263Z,101508.14
2018-05-08T02:30:23.249Z,101499.94
2018-05-08T02:31:27.647Z,101503.67
2018-05-08T02:32:31.787Z,101502.70
2018-05-08T02:33:35.864Z,101510.04
2018-05-08T02:34:40.033Z,101499.14
2018-05-08T02:35:44.093Z,101501.33
2018-05-08T02:36:48.259Z,101495.53
2018-05-08T02:37:52.671Z,101506.06
2018-05-08T02:38:56.755Z,101501.02
2018-05-08T02:40:00.876Z,101496.27
2018-05-08T02:41:05.043Z,101503.59
2018-05-08T02:42:09.104Z,101501.67
2018-05-08T02:43:13.262Z,101500.14
2018-05-08T02:44:17.655Z,101498.33
2018-05-08T02:45:21.891Z,101501.11
2018-05-08T02:46:25.951Z,101495.88
2018-05-08T02:47:30.113Z,101495.76
2018-05-08T02:48:34.195Z,101499.60
2018-05-08T02:49:38.674Z,101498.20
2018-05-08T02:50:42.785Z,101493.42
2018-05-08T02:51:46.854Z,101492.40
2018-05-08T02:52:50.995Z,101494.72
2018-05-08T02:53:55.175Z,101494.87
2018-05-08T02:54:59.360Z,101489.89
2018-05-08T02:56:03.819Z,101487.80
2018-05-08T02:57:08.145Z,101490.25
2018-05-08T02:58:12.229Z,101492.42
2018-05-08T02:59:16.414Z,101491.00
2018-05-08T03:00:20.791Z,101496.34
2018-05-08T03:01:25.137Z,101493.69
2018-05-08T03:02:30.026Z,101490.95
2018-05-08T03:03:34.088Z,101492.38
2018-05-08T03:04:38.251Z,101497.34
2018-05-08T03:05:42.308Z,101496.12
2018-05-08T03:06:46.355Z,101497.58
2018-05-08T03:07:51.219Z,101496.59
2018-05-08T03:08:55.725Z,101491.93
2018-05-08T03:09:59.884Z,101490.56
2018-05-08T03:11:03.944Z,101494.33
2018-05-08T03:12:08.035Z,101490.45
2018-05-08T03:13:12.103Z,101492.67
2018-05-08T03:14:16.187Z,101494.58
2018-05-08T03:15:21.209Z,101496.72
2018-05-08T03:16:25.267Z,101493.65
2018-05-08T03:17:30.088Z,101497.63
2018-05-08T03:18:34.192Z,101495.62
2018-05-08T03:19:38.242Z,101496.05
2018-05-08T03:20:42.452Z,101494.08
2018-05-08T03:21:46.835Z,101496.14
2018-05-08T03:22:50.900Z,101495.00
2018-05-08T03:23:55.046Z,101494.45
2018-05-08T03:24:59.126Z,101498.34
2018-05-08T03:26:03.308Z,101494.85
2018-05-08T03:27:07.372Z,101491.00
2018-05-08T03:28:11.758Z,101492.44
2018-05-08T03:29:15.848Z,101495.78
2018-05-08T03:30:20.348Z,101488.98
2018-05-08T03:31:24.536Z,101489.86
2018-05-08T03:32:28.613Z,101485.44
2018-05-08T03:33:32.734Z,101491.53
2018-05-08T03:34:37.219Z,101489.58
2018-05-08T03:35:41.368Z,101485.81
2018-05-08T03:36:45.430Z,101488.91
2018-05-08T03:37:49.494Z,101488.40
2018-05-08T03:38:53.679Z,101488.00
2018-05-08T03:39:57.743Z,101489.55
2018-05-08T03:41:02.121Z,101487.77
2018-05-08T03:42:06.330Z,101490.55
2018-05-08T03:43:10.502Z,101494.77
2018-05-08T03:44:14.580Z,101489.69
2018-05-08T03:45:19.122Z,101491.80
2018-05-08T03:46:23.260Z,101490.58
2018-05-08T03:47:27.653Z,101495.02
2018-05-08T03:48:32.523Z,101481.79
2018-05-08T03:49:36.591Z,101487.06
2018-05-08T03:50:40.720Z,101488.45
2018-05-08T03:51:44.796Z,101486.66
2018-05-08T03:52:48.844Z,101484.20
2018-05-08T03:53:53.217Z,101487.71
2018-05-08T03:54:57.298Z,101485.59
2018-05-08T03:56:01.517Z,101488.46
2018-05-08T03:57:05.566Z,101484.48
2018-05-08T03:58:09.633Z,101485.36
2018-05-08T03:59:13.678Z,101491.39
2018-05-08T04:00:26.614Z,101483.20
2018-05-08T04:02:45.224Z,101482.38
2018-05-08T04:04:00.272Z,101483.48
2018-05-08T04:05:15.219Z,101480.45
2018-05-08T04:06:19.832Z,101477.78
2018-05-08T04:08:32.522Z,101479.77
2018-05-08T04:09:37.054Z,101477.25
2018-05-08T04:10:41.136Z,101475.28
2018-05-08T04:11:45.234Z,101475.22
2018-05-08T04:12:49.728Z,101475.54
2018-05-08T04:13:53.913Z,101472.41
2018-05-08T04:14:57.997Z,101469.92
2018-05-08T04:16:02.366Z,101473.73
2018-05-08T04:17:06.882Z,101477.52
2018-05-08T04:18:10.971Z,101478.96
2018-05-08T04:19:15.384Z,101476.55
2018-05-08T04:20:19.506Z,101474.02
2018-05-08T04:21:23.585Z,101474.37
2018-05-08T04:22:27.764Z,101471.19
2018-05-08T04:23:31.832Z,101476.19
2018-05-08T04:24:35.896Z,101468.19
2018-05-08T04:25:40.484Z,101474.84
2018-05-08T04:26:44.656Z,101472.66
2018-05-08T04:27:48.764Z,101469.23
2018-05-08T04:28:52.837Z,101470.25
2018-05-08T04:29:56.916Z,101470.55
2018-05-08T04:31:02.570Z,101470.95
2018-05-08T04:32:06.666Z,101471.25
2018-05-08T04:33:10.728Z,101466.25
2018-05-08T04:34:14.801Z,101465.61
2018-05-08T04:35:18.878Z,101465.93
2018-05-08T04:36:23.084Z,101457.14
2018-05-08T04:37:27.464Z,101460.19
2018-05-08T04:38:31.526Z,101457.25
2018-05-08T04:39:35.609Z,101461.70
2018-05-08T04:40:40.312Z,101462.00
2018-05-08T04:41:44.406Z,101460.25
2018-05-08T04:42:48.466Z,101455.55
2018-05-08T04:43:52.605Z,101457.49
2018-05-08T04:44:56.695Z,101456.15
2018-05-08T04:46:01.646Z,101456.21
2018-05-08T04:47:05.748Z,101446.76
2018-05-08T04:48:09.861Z,101452.75
2018-05-08T04:49:14.214Z,101452.01
2018-05-08T04:50:18.306Z,101447.33
2018-05-08T04:51:22.490Z,101448.05
2018-05-08T04:52:26.570Z,101453.00
2018-05-08T04:53:30.631Z,101448.40
2018-05-08T04:54:34.748Z,101447.24
2018-05-08T04:55:39.224Z,101451.11
2018-05-08T04:56:44.134Z,101448.27
2018-05-08T04:57:48.210Z,101452.38
2018-05-08T04:58:52.376Z,101445.98
2018-05-08T04:59:56.478Z,101449.29
2018-05-08T05:01:01.205Z,101448.38
2018-05-08T05:02:05.332Z,101448.23
2018-05-08T05:03:09.504Z,101447.41
2018-05-08T05:04:13.542Z,101443.98
2018-05-08T05:05:17.632Z,101447.31
2018-05-08T05:06:21.782Z,101447.05
2018-05-08T05:07:26.215Z,101442.30
2018-05-08T05:08:30.346Z,101443.72
2018-05-08T05:09:34.473Z,101443.74
2018-05-08T05:10:38.606Z,101439.69
2018-05-08T05:11:42.690Z,101438.30
2018-05-08T05:12:46.806Z,101433.58
2018-05-08T05:13:51.521Z,101440.69
2018-05-08T05:14:55.674Z,101437.28
2018-05-08T05:15:59.961Z,101443.33
2018-05-08T05:17:04.066Z,101442.03
2018-05-08T05:18:08.177Z,101434.11
2018-05-08T05:19:12.275Z,101439.16
2018-05-08T05:20:16.719Z,101440.89
2018-05-08T05:21:20.977Z,101443.33
2018-05-08T05:22:25.140Z,101441.33
2018-05-08T05:23:29.226Z,101439.05
2018-05-08T05:24:34.338Z,101439.38
2018-05-08T05:25:38.525Z,101442.50
2018-05-08T05:26:42.652Z,101443.98
2018-05-08T05:27:47.309Z,101437.92
2018-05-08T05:28:51.366Z,101446.41
2018-05-08T05:29:55.433Z,101436.93
2018-05-08T05:31:00.091Z,101439.44
2018-05-08T05:32:04.443Z,101435.71
2018-05-08T05:33:08.980Z,101432.02
2018-05-08T05:34:13.121Z,101424.88
2018-05-08T05:35:17.197Z,101431.67
2018-05-08T05:36:21.333Z,101432.55
2018-05-08T05:37:25.419Z,101428.38
2018-05-08T05:38:29.897Z,101426.37
2018-05-08T05:39:34.037Z,101424.63
2018-05-08T05:40:38.112Z,101427.09
2018-05-08T05:41:42.859Z,101427.66
2018-05-08T05:42:46.898Z,101425.84
2018-05-08T05:43:51.072Z,101427.63
2018-05-08T05:44:55.475Z,101424.20
2018-05-08T05:45:59.679Z,101428.51
2018-05-08T05:47:03.877Z,101424.41
2018-05-08T05:48:08.179Z,101425.91
2018-05-08T05:49:12.444Z,101422.38
2018-05-08T05:50:16.535Z,101430.84
2018-05-08T05:51:20.591Z,101427.28
2018-05-08T05:52:24.691Z,101420.67
2018-05-08T05:53:28.837Z,101427.44
2018-05-08T05:54:32.960Z,101421.33
2018-05-08T05:55:37.059Z,101426.19
2018-05-08T05:56:41.423Z,101427.02
2018-05-08T05:57:45.477Z,101422.23
2018-05-08T05:58:49.528Z,101414.08
2018-05-08T05:59:53.707Z,101420.41
2018-05-08T06:00:58.047Z,101411.17
2018-05-08T06:02:02.249Z,101403.16
2018-05-08T06:03:06.323Z,101416.39
2018-05-08T06:04:10.598Z,101403.90
2018-05-08T06:05:14.963Z,101410.69
2018-05-08T06:06:19.080Z,101405.09
2018-05-08T06:07:23.177Z,101406.83
2018-05-08T06:08:27.304Z,101408.06
2018-05-08T06:09:31.367Z,101405.19
2018-05-08T06:10:36.381Z,101401.89
2018-05-08T06:11:40.492Z,101403.14
2018-05-08T06:12:45.587Z,101402.32
2018-05-08T06:13:49.739Z,101406.02
2018-05-08T06:14:53.834Z,101402.05
2018-05-08T06:15:58.038Z,101404.27
2018-05-08T06:17:02.139Z,101405.39
2018-05-08T06:18:06.575Z,101402.91
2018-05-08T06:19:11.110Z,101404.98
2018-05-08T06:20:15.605Z,101405.19
2018-05-08T06:21:19.877Z,101406.73
2018-05-08T06:22:23.955Z,101403.81
2018-05-08T06:23:28.167Z,101403.26
2018-05-08T06:24:32.571Z,101402.06
2018-05-08T06:25:38.471Z,101399.11
2018-05-08T06:26:42.589Z,101408.06
2018-05-08T06:27:46.706Z,101401.41
2018-05-08T06:28:50.873Z,101404.92
2018-05-08T06:29:54.991Z,101402.75
2018-05-08T06:30:59.745Z,101408.75
2018-05-08T06:32:03.843Z,101397.02
2018-05-08T06:33:07.962Z,101397.96
2018-05-08T06:34:12.059Z,101408.69
2018-05-08T06:35:16.142Z,101400.70
2018-05-08T06:36:20.228Z,101404.47
2018-05-08T06:37:24.426Z,101401.16
2018-05-08T06:38:28.479Z,101401.17
2018-05-08T06:39:32.849Z,101402.94
2018-05-08T06:40:36.903Z,101404.09
2018-05-08T06:41:41.098Z,101409.11
2018-05-08T06:42:45.259Z,101399.52
2018-05-08T06:43:49.651Z,101396.59
2018-05-08T06:44:53.767Z,101395.46
2018-05-08T06:45:58.235Z,101397.60
2018-05-08T06:47:02.541Z,101398.83
2018-05-08T06:48:06.623Z,101398.31
2018-05-08T06:49:10.716Z,101398.76
2018-05-08T06:50:15.080Z,101400.07
2018-05-08T06:51:19.277Z,101399.30
2018-05-08T06:52:23.409Z,101393.03
2018-05-08T06:53:27.451Z,101396.77
2018-05-08T06:54:31.651Z,101401.86
2018-05-08T06:55:35.839Z,101394.28
2018-05-08T06:56:41.171Z,101396.64
2018-05-08T06:57:45.417Z,101400.40
2018-05-08T06:58:49.595Z,101393.16
2018-05-08T06:59:53.755Z,101392.81
2018-05-08T07:00:58.137Z,101396.84
2018-05-08T07:02:02.574Z,101389.61
2018-05-08T07:03:06.671Z,101382.64
2018-05-08T07:04:10.989Z,101386.39
2018-05-08T07:05:15.226Z,101385.36
2018-05-08T07:06:19.433Z,101388.68
2018-05-08T07:07:23.696Z,101380.27
2018-05-08T07:08:28.191Z,101381.75
2018-05-08T07:09:32.562Z,101379.97
2018-05-08T07:10:36.757Z,101377.94
2018-05-08T07:11:41.554Z,101376.69
2018-05-08T07:12:46.598Z,101375.06
2018-05-08T07:13:50.738Z,101371.46
2018-05-08T07:14:55.263Z,101375.06
2018-05-08T07:16:00.125Z,101375.98
2018-05-08T07:17:04.741Z,101377.19
2018-05-08T07:18:09.337Z,101374.17
2018-05-08T07:19:13.465Z,101375.49
2018-05-08T07:20:17.635Z,101369.52
2018-05-08T07:21:22.148Z,101370.45
2018-05-08T07:22:26.494Z,101377.97
2018-05-08T07:23:30.703Z,101374.91
2018-05-08T07:24:34.906Z,101369.89
2018-05-08T07:25:39.239Z,101374.89
2018-05-08T07:26:43.518Z,101371.95
2018-05-08T07:27:47.807Z,101371.82
2018-05-08T07:28:52.622Z,101365.86
2018-05-08T07:29:56.822Z,101368.94
2018-05-08T07:31:01.604Z,101371.50
2018-05-08T07:32:05.876Z,101372.23
2018-05-08T07:33:10.186Z,101368.37
2018-05-08T07:34:14.586Z,101374.99
2018-05-08T07:35:18.661Z,101364.33
2018-05-08T07:36:22.821Z,101367.28
2018-05-08T07:37:26.896Z,101359.98
2018-05-08T07:38:30.965Z,101369.20
2018-05-08T07:39:35.128Z,101363.71
2018-05-08T07:40:39.489Z,101372.18
2018-05-08T07:41:43.651Z,101369.16
2018-05-08T07:42:47.795Z,101364.73
2018-05-08T07:43:51.924Z,101366.32
2018-05-08T07:44:56.063Z,101365.62
2018-05-08T07:46:00.142Z,101369.36
2018-05-08T07:47:04.495Z,101359.63
2018-05-08T07:48:08.617Z,101360.36
2018-05-08T07:49:12.740Z,101365.42
2018-05-08T07:50:16.827Z,101361.84
2018-05-08T07:51:20.899Z,101367.66
2018-05-08T07:52:25.085Z,101365.14
2018-05-08T07:53:29.307Z,101364.41
2018-05-08T07:54:33.492Z,101366.64
2018-05-08T07:55:37.583Z,101365.05
2018-05-08T07:56:41.686Z,101360.51
2018-05-08T07:57:45.805Z,101367.51
2018-05-08T07:58:50.430Z,101366.05
2018-05-08T07:59:55.069Z,101365.05
2018-05-08T08:00:59.954Z,101367.14
2018-05-08T08:02:04.015Z,101361.38
2018-05-08T08:03:08.096Z,101360.44
2018-05-08T08:04:12.270Z,101361.78
2018-05-08T08:05:16.649Z,101357.05
2018-05-08T08:06:20.800Z,101355.20
2018-05-08T08:07:24.965Z,101355.97
2018-05-08T08:08:28.988Z,101355.53
2018-05-08T08:09:33.182Z,101358.70
2018-05-08T08:10:37.260Z,101363.97
2018-05-08T08:11:41.728Z,101357.20
2018-05-08T08:12:45.977Z,101358.66
2018-05-08T08:13:50.068Z,101357.42
2018-05-08T08:14:54.238Z,101351.24
2018-05-08T08:15:59.587Z,101354.45
2018-05-08T08:17:03.660Z,101350.91
2018-05-08T08:18:07.737Z,101352.53
2018-05-08T08:19:11.933Z,101351.74
2018-05-08T08:20:16.043Z,101351.42
2018-05-08T08:21:20.205Z,101356.30
2018-05-08T08:22:24.284Z,101351.45
2018-05-08T08:23:28.442Z,101349.86
2018-05-08T08:24:32.913Z,101345.47
2018-05-08T08:25:37.017Z,101345.94
2018-05-08T08:26:41.097Z,101346.55
2018-05-08T08:27:45.270Z,101348.97
2018-05-08T08:28:49.568Z,101352.47
2018-05-08T08:29:53.638Z,101346.88
2018-05-08T08:30:58.571Z,101350.55
2018-05-08T08:32:03.105Z,101345.02
2018-05-08T08:33:07.195Z,101347.02
2018-05-08T08:34:11.355Z,101353.09
2018-05-08T08:35:15.429Z,101354.83
2018-05-08T08:36:19.523Z,101348.14
2018-05-08T08:37:23.946Z,101349.18
2018-05-08T08:38:28.127Z,101343.22
2018-05-08T08:39:32.251Z,101342.50
2018-05-08T08:40:36.339Z,101334.50
2018-05-08T08:41:40.418Z,101341.41
2018-05-08T08:42:44.619Z,101327.23
2018-05-08T08:43:48.829Z,101339.42
2018-05-08T08:44:52.925Z,101330.46
2018-05-08T08:45:57.614Z,101329.41
2018-05-08T08:47:03.045Z,101331.05
2018-05-08T08:48:07.639Z,101325.86
2018-05-08T08:49:12.163Z,101326.19
2018-05-08T08:50:16.519Z,101325.18
2018-05-08T08:51:20.955Z,101321.35
2018-05-08T08:52:25.514Z,101323.56
2018-05-08T08:53:30.043Z,101314.08
2018-05-08T08:54:34.568Z,101315.70
2018-05-08T08:55:39.035Z,101317.39
2018-05-08T08:56:43.090Z,101315.29
2018-05-08T08:57:47.377Z,101316.79
2018-05-08T08:58:51.561Z,101316.36
2018-05-08T08:59:56.048Z,101311.31
2018-05-08T09:01:00.482Z,101303.63
2018-05-08T09:02:04.543Z,101307.84
2018-05-08T09:03:08.672Z,101310.49
2018-05-08T09:04:12.715Z,101302.08
2018-05-08T09:05:16.779Z,101300.69
2018-05-08T09:06:20.883Z,101304.92
2018-05-08T09:07:25.058Z,101305.33
2018-05-08T09:08:29.122Z,101305.70
2018-05-08T09:09:33.193Z,101303.33
2018-05-08T09:10:37.447Z,101302.28
2018-05-08T09:11:41.835Z,101301.51
2018-05-08T09:12:45.972Z,101302.16
2018-05-08T09:13:50.264Z,101291.13
2018-05-08T09:14:54.655Z,101297.38
2018-05-08T09:15:59.240Z,101294.85
2018-05-08T09:17:03.615Z,101288.99
2018-05-08T09:18:08.101Z,101289.02
2018-05-08T09:19:12.259Z,101286.21
2018-05-08T09:20:16.328Z,101284.89
2018-05-08T09:21:20.502Z,101287.37
2018-05-08T09:22:24.706Z,101282.05
2018-05-08T09:23:29.137Z,101284.33
2018-05-08T09:24:33.231Z,101282.55
2018-05-08T09:25:37.332Z,101279.48
2018-05-08T09:26:41.516Z,101279.49
2018-05-08T09:27:45.637Z,101278.88
2018-05-08T09:28:49.931Z,101284.27
2018-05-08T09:29:54.330Z,101278.45
2018-05-08T09:30:59.982Z,101275.55
2018-05-08T09:32:04.204Z,101270.45
2018-05-08T09:33:08.310Z,101273.87
2018-05-08T09:34:12.966Z,101272.52
2018-05-08T09:35:17.036Z,101270.74
2018-05-08T09:36:21.406Z,101277.35
2018-05-08T09:37:25.463Z,101270.85
2018-05-08T09:38:29.594Z,101274.80
2018-05-08T09:39:33.698Z,101264.59
2018-05-08T09:40:37.738Z,101269.70
2018-05-08T09:41:41.888Z,101261.53
2018-05-08T09:42:46.344Z,101262.93
2018-05-08T09:43:50.474Z,101254.93
2018-05-08T09:44:54.863Z,101251.59
2018-05-08T09:45:59.601Z,101255.70
2018-05-08T09:47:04.050Z,101243.50
2018-05-08T09:48:08.430Z,101246.84
2018-05-08T09:49:13.141Z,101246.53
2018-05-08T09:50:17.144Z,101249.89
2018-05-08T09:51:21.313Z,101246.94
2018-05-08T09:52:25.386Z,101253.72
2018-05-08T09:53:29.520Z,101252.34
2018-05-08T09:54:33.644Z,101242.91
2018-05-08T09:55:38.032Z,101245.84
2018-05-08T09:56:42.106Z,101243.99
2018-05-08T09:57:46.220Z,101243.73
2018-05-08T09:58:50.480Z,101247.92
2018-05-08T09:59:54.653Z,101249.87
2018-05-08T10:00:59.052Z,101240.84
2018-05-08T10:02:04.442Z,101247.69
2018-05-08T10:03:08.657Z,101245.25
2018-05-08T10:04:12.717Z,101241.20
2018-05-08T10:05:16.888Z,101230.74
2018-05-08T10:06:20.989Z,101231.18
2018-05-08T10:07:25.067Z,101232.99
2018-05-08T10:08:29.468Z,101235.58
2018-05-08T10:09:33.614Z,101228.59
2018-05-08T10:10:37.688Z,101231.53
2018-05-08T10:11:41.732Z,101232.33
2018-05-08T10:12:45.819Z,101229.54
2018-05-08T10:13:50.091Z,101235.97
2018-05-08T10:14:54.287Z,101225.09
2018-05-08T10:15:58.661Z,101227.64
2018-05-08T10:17:03.381Z,101236.92
2018-05-08T10:18:07.820Z,101227.27
2018-05-08T10:19:11.956Z,101225.69
2018-05-08T10:20:16.062Z,101225.47
2018-05-08T10:21:20.241Z,101222.95
2018-05-08T10:22:24.324Z,101226.94
2018-05-08T10:23:28.554Z,101215.73
2018-05-08T10:24:32.635Z,101213.67
2018-05-08T10:25:36.801Z,101212.39
2018-05-08T10:26:40.879Z,101207.41
2018-05-08T10:27:44.976Z,101215.42
2018-05-08T10:28:49.244Z,101213.83
2018-05-08T10:29:53.379Z,101213.19
2018-05-08T10:30:57.772Z,101205.41
2018-05-08T10:32:01.846Z,101206.97
2018-05-08T10:33:06.918Z,101203.87
2018-05-08T10:34:12.450Z,101195.77
2018-05-08T10:35:16.519Z,101205.25
2018-05-08T10:36:20.622Z,101192.58
2018-05-08T10:37:25.064Z,101207.36
2018-05-08T10:38:29.120Z,101206.47
2018-05-08T10:39:33.198Z,101206.23
2018-05-08T10:40:37.321Z,101193.33
2018-05-08T10:41:41.425Z,101199.95
2018-05-08T10:42:45.519Z,101193.01
2018-05-08T10:43:50.046Z,101194.11
2018-05-08T10:44:54.153Z,101201.21
2018-05-08T10:45:59.080Z,101194.45
2018-05-08T10:47:03.578Z,101200.94
2018-05-08T10:48:07.663Z,101191.20
2018-05-08T10:49:11.854Z,101186.73
2018-05-08T10:50:16.219Z,101192.13
2018-05-08T10:51:20.365Z,101195.05
2018-05-08T10:52:24.477Z,101188.55
2018-05-08T10:53:28.544Z,101183.91
2018-05-08T10:54:32.614Z,101194.53
2018-05-08T10:55:37.029Z,101199.67
2018-05-08T10:56:41.134Z,101188.89
2018-05-08T10:57:45.226Z,101186.02
2018-05-08T10:58:49.319Z,101181.12
2018-05-08T10:59:53.520Z,101175.92
2018-05-08T11:00:57.703Z,101178.95
2018-05-08T11:02:02.578Z,101180.58
2018-05-08T11:03:07.548Z,101174.66
2018-05-08T11:04:11.640Z,101175.57
2018-05-08T11:05:15.726Z,101173.36
2018-05-08T11:06:19.959Z,101168.79
2018-05-08T11:07:24.053Z,101171.31
2018-05-08T11:08:28.448Z,101174.06
2018-05-08T11:09:32.552Z,101168.09
2018-05-08T11:10:36.609Z,101162.78
2018-05-08T11:11:40.757Z,101164.98
2018-05-08T11:12:44.833Z,101169.31
2018-05-08T11:13:48.952Z,101161.22
2018-05-08T11:14:53.045Z,101160.86
2018-05-08T11:15:57.121Z,101156.69
2018-05-08T11:17:01.624Z,101161.10
2018-05-08T11:18:05.699Z,101165.53
2018-05-08T11:19:09.873Z,101163.56
2018-05-08T11:20:13.959Z,101158.91
2018-05-08T11:21:18.451Z,101157.25
2018-05-08T11:22:22.537Z,101165.03
2018-05-08T11:23:26.608Z,101159.41
2018-05-08T11:24:30.710Z,101160.34
2018-05-08T11:25:34.848Z,101163.95
2018-05-08T11:26:39.105Z,101163.48
2018-05-08T11:27:43.456Z,101163.45
2018-05-08T11:28:47.620Z,101157.84
2018-05-08T11:29:51.703Z,101160.24
2018-05-08T11:30:56.296Z,101167.27
2018-05-08T11:32:00.778Z,101152.66
2018-05-08T11:33:05.483Z,101151.87
2018-05-08T11:34:09.832Z,101156.00
2018-05-08T11:35:13.907Z,101149.72
2018-05-08T11:36:18.055Z,101148.08
2018-05-08T11:37:22.117Z,101138.09
2018-05-08T11:38:26.195Z,101142.22
2018-05-08T11:39:30.351Z,101138.73
2018-05-08T11:40:34.738Z,101136.74
2018-05-08T11:41:38.905Z,101127.61
2018-05-08T11:42:43.010Z,101133.91
2018-05-08T11:43:47.225Z,101141.58
2018-05-08T11:44:51.282Z,101145.81
2018-05-08T11:45:55.778Z,101127.45
2018-05-08T11:47:00.228Z,101137.78
2018-05-08T11:48:04.774Z,101133.68
2018-05-08T11:49:09.166Z,101134.12
2018-05-08T11:50:13.399Z,101128.52
2018-05-08T11:51:17.502Z,101130.90
2018-05-08T11:52:21.581Z,101125.17
2018-05-08T11:53:26.042Z,101122.66
2018-05-08T11:54:30.128Z,101115.07
2018-05-08T11:55:34.358Z,101125.62
2018-05-08T11:56:38.467Z,101122.01
2018-05-08T11:57:42.745Z,101116.31
2018-05-08T11:58:46.931Z,101114.61
2018-05-08T11:59:51.056Z,101111.92
2018-05-08T12:00:55.257Z,101115.73
2018-05-08T12:01:59.412Z,101107.14
2018-05-08T12:03:03.557Z,101110.30
2018-05-08T12:04:07.666Z,101108.59
2018-05-08T12:05:11.753Z,101109.31
2018-05-08T12:06:16.158Z,101105.84
2018-05-08T12:07:20.238Z,101107.69
2018-05-08T12:08:25.361Z,101119.25
2018-05-08T12:09:29.430Z,101102.63
2018-05-08T12:10:33.592Z,101099.41
2018-05-08T12:11:37.692Z,101103.98
2018-05-08T12:12:42.118Z,101095.67
2018-05-08T12:13:46.314Z,101088.97
2018-05-08T12:14:50.546Z,101095.11
2018-05-08T12:15:54.921Z,101097.03
2018-05-08T12:16:59.376Z,101102.28